sensor_id;sensor_type;location;lat;lon;timestamp;pressure;altitude;pressure_sealevel;temperature;humidity
22440;BME280;11387;51.612;7.210;2023-01-29T00:01:09;102161.50;;;-3.93;93.88
22440;BME280;11387;51.612;7.210;2023-01-29T00:03:37;102169.53;;;-3.93;93.89
22440;BME280;11387;51.612;7.210;2023-01-29T00:06:08;102169.38;;;-3.92;94.29
22440;BME280;11387;51.612;7.210;2023-01-29T00:08:37;102165.19;;;-3.94;94.25
22440;BME280;11387;51.612;7.210;2023-01-29T00:11:07;102156.00;;;-4.00;94.05
22440;BME280;11387;51.612;7.210;2023-01-29T00:13:36;102157.50;;;-4.05;94.05
22440;BME280;11387;51.612;7.210;2023-01-29T00:16:04;102162.34;;;-4.09;94.42
22440;BME280;11387;51.612;7.210;2023-01-29T00:18:37;102155.31;;;-4.10;94.45
22440;BME280;11387;51.612;7.210;2023-01-29T00:21:09;102146.66;;;-4.04;94.43
22440;BME280;11387;51.612;7.210;2023-01-29T00:23:37;102137.63;;;-4.03;94.48
22440;BME280;11387;51.612;7.210;2023-01-29T00:26:06;102145.97;;;-4.06;94.44
22440;BME280;11387;51.612;7.210;2023-01-29T00:28:35;102143.97;;;-4.12;94.30
22440;BME280;11387;51.612;7.210;2023-01-29T00:31:08;102149.28;;;-4.20;94.35
22440;BME280;11387;51.612;7.210;2023-01-29T00:33:37;102147.28;;;-4.18;94.51
22440;BME280;11387;51.612;7.210;2023-01-29T00:36:10;102141.28;;;-4.28;94.71
22440;BME280;11387;51.612;7.210;2023-01-29T00:38:39;102144.44;;;-4.25;94.43
22440;BME280;11387;51.612;7.210;2023-01-29T00:41:09;102133.41;;;-4.30;94.45
22440;BME280;11387;51.612;7.210;2023-01-29T00:43:55;102138.09;;;-4.32;94.74
22440;BME280;11387;51.612;7.210;2023-01-29T00:46:42;102147.78;;;-4.31;94.52
22440;BME280;11387;51.612;7.210;2023-01-29T00:49:11;102136.91;;;-4.37;94.66
22440;BME280;11387;51.612;7.210;2023-01-29T00:51:41;102146.28;;;-4.33;94.79
22440;BME280;11387;51.612;7.210;2023-01-29T00:54:09;102148.94;;;-4.33;95.33
22440;BME280;11387;51.612;7.210;2023-01-29T00:56:38;102143.59;;;-4.33;95.14
22440;BME280;11387;51.612;7.210;2023-01-29T00:59:07;102152.13;;;-4.30;95.14
22440;BME280;11387;51.612;7.210;2023-01-29T01:01:35;102157.47;;;-4.22;95.40
22440;BME280;11387;51.612;7.210;2023-01-29T01:04:21;102158.66;;;-4.16;95.48
22440;BME280;11387;51.612;7.210;2023-01-29T01:06:51;102152.66;;;-4.10;95.54
22440;BME280;11387;51.612;7.210;2023-01-29T01:09:20;102147.13;;;-4.09;96.51
22440;BME280;11387;51.612;7.210;2023-01-29T01:12:06;102138.78;;;-4.05;95.72
22440;BME280;11387;51.612;7.210;2023-01-29T01:14:34;102135.63;;;-4.09;95.69
22440;BME280;11387;51.612;7.210;2023-01-29T01:17:03;102129.75;;;-4.13;95.51
22440;BME280;11387;51.612;7.210;2023-01-29T01:19:32;102130.28;;;-4.09;95.38
22440;BME280;11387;51.612;7.210;2023-01-29T01:22:02;102108.38;;;-4.13;95.70
22440;BME280;11387;51.612;7.210;2023-01-29T01:24:31;102103.53;;;-4.09;95.36
22440;BME280;11387;51.612;7.210;2023-01-29T01:26:59;102100.34;;;-4.21;95.51
22440;BME280;11387;51.612;7.210;2023-01-29T01:29:28;102105.69;;;-4.21;95.31
22440;BME280;11387;51.612;7.210;2023-01-29T01:31:57;102097.53;;;-4.11;95.49
22440;BME280;11387;51.612;7.210;2023-01-29T01:34:26;102095.00;;;-4.21;95.46
22440;BME280;11387;51.612;7.210;2023-01-29T01:36:55;102104.19;;;-4.15;95.38
22440;BME280;11387;51.612;7.210;2023-01-29T01:39:24;102106.84;;;-4.23;95.55
22440;BME280;11387;51.612;7.210;2023-01-29T01:41:53;102105.84;;;-4.22;95.60
22440;BME280;11387;51.612;7.210;2023-01-29T01:44:53;102097.84;;;-4.22;95.27
22440;BME280;11387;51.612;7.210;2023-01-29T01:47:26;102110.84;;;-4.27;95.39
22440;BME280;11387;51.612;7.210;2023-01-29T01:50:00;102101.50;;;-4.23;95.72
22440;BME280;11387;51.612;7.210;2023-01-29T01:52:34;102113.88;;;-4.22;95.82
22440;BME280;11387;51.612;7.210;2023-01-29T01:55:06;102120.22;;;-4.23;95.39
22440;BME280;11387;51.612;7.210;2023-01-29T01:57:35;102111.88;;;-4.20;95.27
22440;BME280;11387;51.612;7.210;2023-01-29T02:00:08;102106.53;;;-4.20;95.63
22440;BME280;11387;51.612;7.210;2023-01-29T02:02:40;102111.88;;;-4.20;95.63
22440;BME280;11387;51.612;7.210;2023-01-29T02:05:28;102113.22;;;-4.16;95.41
22440;BME280;11387;51.612;7.210;2023-01-29T02:08:19;102112.88;;;-4.13;95.30
22440;BME280;11387;51.612;7.210;2023-01-29T02:11:10;102111.72;;;-4.11;95.51
22440;BME280;11387;51.612;7.210;2023-01-29T02:13:38;102108.72;;;-4.16;95.73
22440;BME280;11387;51.612;7.210;2023-01-29T02:16:08;102112.56;;;-4.10;95.44
22440;BME280;11387;51.612;7.210;2023-01-29T02:18:37;102105.88;;;-4.06;95.45
22440;BME280;11387;51.612;7.210;2023-01-29T02:21:24;102113.56;;;-4.11;95.49
22440;BME280;11387;51.612;7.210;2023-01-29T02:27:06;102118.72;;;-4.26;95.26
22440;BME280;11387;51.612;7.210;2023-01-29T02:29:46;102128.22;;;-4.23;95.31
22440;BME280;11387;51.612;7.210;2023-01-29T02:32:23;102118.53;;;-4.24;95.12
22440;BME280;11387;51.612;7.210;2023-01-29T02:35:05;102126.56;;;-4.24;94.91
22440;BME280;11387;51.612;7.210;2023-01-29T02:38:09;102118.56;;;-4.16;95.14
22440;BME280;11387;51.612;7.210;2023-01-29T02:40:42;102120.06;;;-4.22;95.12
22440;BME280;11387;51.612;7.210;2023-01-29T02:43:21;102120.91;;;-4.13;94.72
22440;BME280;11387;51.612;7.210;2023-01-29T02:46:00;102116.91;;;-4.09;94.31
22440;BME280;11387;51.612;7.210;2023-01-29T02:48:38;102108.19;;;-4.19;94.20
22440;BME280;11387;51.612;7.210;2023-01-29T02:51:13;102107.88;;;-4.16;94.48
22440;BME280;11387;51.612;7.210;2023-01-29T02:53:47;102122.38;;;-4.35;94.54
22440;BME280;11387;51.612;7.210;2023-01-29T02:56:20;102121.38;;;-4.42;94.74
22440;BME280;11387;51.612;7.210;2023-01-29T02:58:53;102119.19;;;-4.47;94.83
22440;BME280;11387;51.612;7.210;2023-01-29T03:01:29;102123.38;;;-4.36;94.83
22440;BME280;11387;51.612;7.210;2023-01-29T03:04:03;102128.88;;;-4.37;95.20
22440;BME280;11387;51.612;7.210;2023-01-29T03:06:37;102123.38;;;-4.36;95.25
22440;BME280;11387;51.612;7.210;2023-01-29T03:09:12;102122.06;;;-4.32;95.13
22440;BME280;11387;51.612;7.210;2023-01-29T03:11:47;102114.19;;;-4.42;95.17
22440;BME280;11387;51.612;7.210;2023-01-29T03:14:21;102117.50;;;-4.48;95.29
22440;BME280;11387;51.612;7.210;2023-01-29T03:16:53;102119.97;;;-4.54;95.06
22440;BME280;11387;51.612;7.210;2023-01-29T03:19:28;102133.88;;;-4.43;95.20
22440;BME280;11387;51.612;7.210;2023-01-29T03:22:03;102128.53;;;-4.43;95.16
22440;BME280;11387;51.612;7.210;2023-01-29T03:24:38;102136.75;;;-4.36;95.26
22440;BME280;11387;51.612;7.210;2023-01-29T03:27:32;102134.59;;;-4.32;95.51
22440;BME280;11387;51.612;7.210;2023-01-29T03:30:21;102130.56;;;-4.20;95.68
22440;BME280;11387;51.612;7.210;2023-01-29T03:33:13;102130.28;;;-4.09;96.13
22440;BME280;11387;51.612;7.210;2023-01-29T03:35:49;102132.63;;;-3.98;95.93
22440;BME280;11387;51.612;7.210;2023-01-29T03:38:21;102134.63;;;-3.84;96.09
22440;BME280;11387;51.612;7.210;2023-01-29T03:41:04;102125.59;;;-3.75;95.97
22440;BME280;11387;51.612;7.210;2023-01-29T03:43:39;102126.91;;;-3.62;95.66
22440;BME280;11387;51.612;7.210;2023-01-29T03:46:17;102119.88;;;-3.47;95.70
22440;BME280;11387;51.612;7.210;2023-01-29T03:48:53;102118.34;;;-3.33;94.97
22440;BME280;11387;51.612;7.210;2023-01-29T03:51:27;102123.16;;;-3.21;94.80
22440;BME280;11387;51.612;7.210;2023-01-29T03:54:04;102121.00;;;-3.17;93.92
22440;BME280;11387;51.612;7.210;2023-01-29T03:56:45;102117.47;;;-3.10;92.94
22440;BME280;11387;51.612;7.210;2023-01-29T03:59:24;102106.41;;;-3.07;92.33
22440;BME280;11387;51.612;7.210;2023-01-29T04:02:00;102114.06;;;-3.03;90.76
22440;BME280;11387;51.612;7.210;2023-01-29T04:04:33;102105.69;;;-3.00;90.65
22440;BME280;11387;51.612;7.210;2023-01-29T04:07:09;102106.03;;;-3.03;89.75
22440;BME280;11387;51.612;7.210;2023-01-29T04:09:42;102101.66;;;-2.96;89.38
22440;BME280;11387;51.612;7.210;2023-01-29T04:12:16;102094.66;;;-2.97;89.37
22440;BME280;11387;51.612;7.210;2023-01-29T04:14:48;102079.41;;;-2.97;88.51
22440;BME280;11387;51.612;7.210;2023-01-29T04:17:22;102075.94;;;-3.06;88.46
22440;BME280;11387;51.612;7.210;2023-01-29T04:19:54;102073.31;;;-3.14;88.63
22440;BME280;11387;51.612;7.210;2023-01-29T04:22:28;102071.97;;;-3.18;88.88
22440;BME280;11387;51.612;7.210;2023-01-29T04:24:59;102062.28;;;-3.19;88.93
22440;BME280;11387;51.612;7.210;2023-01-29T04:27:42;102072.31;;;-3.21;89.05
22440;BME280;11387;51.612;7.210;2023-01-29T04:30:21;102070.31;;;-3.19;88.74
22440;BME280;11387;51.612;7.210;2023-01-29T04:32:59;102084.34;;;-3.17;88.75
22440;BME280;11387;51.612;7.210;2023-01-29T04:35:40;102075.28;;;-3.08;89.47
22440;BME280;11387;51.612;7.210;2023-01-29T04:38:16;102068.56;;;-3.03;89.03
22440;BME280;11387;51.612;7.210;2023-01-29T04:40:54;102060.78;;;-2.82;88.88
22440;BME280;11387;51.612;7.210;2023-01-29T04:43:34;102055.91;;;-2.79;87.84
22440;BME280;11387;51.612;7.210;2023-01-29T04:46:15;102059.03;;;-2.75;87.85
22440;BME280;11387;51.612;7.210;2023-01-29T04:48:57;102055.75;;;-2.77;88.11
22440;BME280;11387;51.612;7.210;2023-01-29T04:51:36;102053.16;;;-2.71;88.04
22440;BME280;11387;51.612;7.210;2023-01-29T04:54:16;102053.66;;;-2.67;87.46
22440;BME280;11387;51.612;7.210;2023-01-29T04:56:50;102047.28;;;-2.66;87.06
22440;BME280;11387;51.612;7.210;2023-01-29T04:59:26;102041.25;;;-2.68;87.31
22440;BME280;11387;51.612;7.210;2023-01-29T05:01:58;102043.91;;;-2.60;87.44
22440;BME280;11387;51.612;7.210;2023-01-29T05:04:30;102050.75;;;-2.57;87.13
22440;BME280;11387;51.612;7.210;2023-01-29T05:07:05;102043.50;;;-2.49;86.84
22440;BME280;11387;51.612;7.210;2023-01-29T05:09:36;102030.81;;;-2.55;86.81
22440;BME280;11387;51.612;7.210;2023-01-29T05:12:08;102024.44;;;-2.54;86.89
22440;BME280;11387;51.612;7.210;2023-01-29T05:14:40;102022.13;;;-2.57;87.04
22440;BME280;11387;51.612;7.210;2023-01-29T05:17:13;102013.91;;;-2.55;87.39
22440;BME280;11387;51.612;7.210;2023-01-29T05:19:43;102009.03;;;-2.52;86.86
22440;BME280;11387;51.612;7.210;2023-01-29T05:22:15;102013.41;;;-2.59;86.92
22440;BME280;11387;51.612;7.210;2023-01-29T05:24:45;102010.69;;;-2.51;86.70
22440;BME280;11387;51.612;7.210;2023-01-29T05:27:17;102008.00;;;-2.51;87.21
22440;BME280;11387;51.612;7.210;2023-01-29T05:30:05;102009.97;;;-2.45;86.67
22440;BME280;11387;51.612;7.210;2023-01-29T05:32:34;102004.41;;;-2.43;86.62
22440;BME280;11387;51.612;7.210;2023-01-29T05:35:02;102013.28;;;-2.43;86.48
22440;BME280;11387;51.612;7.210;2023-01-29T05:37:32;102016.28;;;-2.38;86.31
22440;BME280;11387;51.612;7.210;2023-01-29T05:40:01;102009.84;;;-2.28;86.15
22440;BME280;11387;51.612;7.210;2023-01-29T05:42:29;102008.88;;;-2.35;86.06
22440;BME280;11387;51.612;7.210;2023-01-29T05:44:58;102013.72;;;-2.31;86.02
22440;BME280;11387;51.612;7.210;2023-01-29T05:47:26;102022.88;;;-2.25;86.01
22440;BME280;11387;51.612;7.210;2023-01-29T05:49:55;102026.22;;;-2.23;85.72
22440;BME280;11387;51.612;7.210;2023-01-29T05:52:23;102029.63;;;-2.29;85.87
22440;BME280;11387;51.612;7.210;2023-01-29T05:54:53;102032.28;;;-2.29;86.03
22440;BME280;11387;51.612;7.210;2023-01-29T05:57:22;102026.75;;;-2.28;86.38
22440;BME280;11387;51.612;7.210;2023-01-29T05:59:51;102021.03;;;-2.25;85.82
22440;BME280;11387;51.612;7.210;2023-01-29T06:02:20;102030.22;;;-2.19;85.68
22440;BME280;11387;51.612;7.210;2023-01-29T06:04:50;102034.75;;;-2.20;85.78
22440;BME280;11387;51.612;7.210;2023-01-29T06:07:18;102038.56;;;-2.14;85.76
22440;BME280;11387;51.612;7.210;2023-01-29T06:09:47;102051.31;;;-2.16;85.95
22440;BME280;11387;51.612;7.210;2023-01-29T06:12:17;102057.22;;;-2.06;85.90
22440;BME280;11387;51.612;7.210;2023-01-29T06:14:46;102060.22;;;-2.01;85.74
22440;BME280;11387;51.612;7.210;2023-01-29T06:17:14;102056.16;;;-1.97;85.42
22440;BME280;11387;51.612;7.210;2023-01-29T06:19:42;102052.34;;;-2.03;85.67
22440;BME280;11387;51.612;7.210;2023-01-29T06:22:11;102062.00;;;-1.93;85.47
22440;BME280;11387;51.612;7.210;2023-01-29T06:24:39;102060.16;;;-1.93;85.31
22440;BME280;11387;51.612;7.210;2023-01-29T06:27:08;102053.28;;;-1.95;85.28
22440;BME280;11387;51.612;7.210;2023-01-29T06:29:38;102041.19;;;-1.91;85.31
22440;BME280;11387;51.612;7.210;2023-01-29T06:32:06;102036.00;;;-1.93;85.25
22440;BME280;11387;51.612;7.210;2023-01-29T06:34:35;102032.44;;;-1.85;85.22
22440;BME280;11387;51.612;7.210;2023-01-29T06:37:03;102031.94;;;-1.89;85.32
22440;BME280;11387;51.612;7.210;2023-01-29T06:39:32;102036.47;;;-1.89;85.21
22440;BME280;11387;51.612;7.210;2023-01-29T06:42:00;102039.88;;;-1.95;85.69
22440;BME280;11387;51.612;7.210;2023-01-29T06:44:29;102039.34;;;-1.91;85.36
22440;BME280;11387;51.612;7.210;2023-01-29T06:46:59;102050.78;;;-1.97;85.91
22440;BME280;11387;51.612;7.210;2023-01-29T06:49:27;102040.00;;;-1.89;85.49
22440;BME280;11387;51.612;7.210;2023-01-29T06:51:56;102037.03;;;-1.79;85.73
22440;BME280;11387;51.612;7.210;2023-01-29T06:54:24;102043.59;;;-1.82;85.71
22440;BME280;11387;51.612;7.210;2023-01-29T06:56:53;102037.78;;;-1.85;85.27
22440;BME280;11387;51.612;7.210;2023-01-29T06:59:22;102041.94;;;-1.83;85.66
22440;BME280;11387;51.612;7.210;2023-01-29T07:01:50;102037.69;;;-1.77;85.29
22440;BME280;11387;51.612;7.210;2023-01-29T07:04:20;102030.00;;;-1.80;85.54
22440;BME280;11387;51.612;7.210;2023-01-29T07:06:49;102034.28;;;-1.71;85.30
22440;BME280;11387;51.612;7.210;2023-01-29T07:09:17;102035.28;;;-1.72;85.26
22440;BME280;11387;51.612;7.210;2023-01-29T07:11:46;102046.69;;;-1.70;85.17
22440;BME280;11387;51.612;7.210;2023-01-29T07:14:14;102046.78;;;-1.63;85.54
22440;BME280;11387;51.612;7.210;2023-01-29T07:16:43;102044.09;;;-1.63;85.04
22440;BME280;11387;51.612;7.210;2023-01-29T07:19:11;102042.53;;;-1.58;85.02
22440;BME280;11387;51.612;7.210;2023-01-29T07:21:41;102039.09;;;-1.52;84.68
22440;BME280;11387;51.612;7.210;2023-01-29T07:24:09;102040.94;;;-1.52;84.17
22440;BME280;11387;51.612;7.210;2023-01-29T07:26:38;102044.03;;;-1.55;84.48
22440;BME280;11387;51.612;7.210;2023-01-29T07:29:07;102049.75;;;-1.58;84.89
22440;BME280;11387;51.612;7.210;2023-01-29T07:31:35;102039.56;;;-1.48;84.57
22440;BME280;11387;51.612;7.210;2023-01-29T07:34:04;102047.91;;;-1.43;84.39
22440;BME280;11387;51.612;7.210;2023-01-29T07:36:32;102041.88;;;-1.45;84.29
22440;BME280;11387;51.612;7.210;2023-01-29T07:39:04;102045.88;;;-1.41;84.13
22440;BME280;11387;51.612;7.210;2023-01-29T07:41:33;102039.75;;;-1.50;84.81
22440;BME280;11387;51.612;7.210;2023-01-29T07:44:01;102038.47;;;-1.39;84.64
22440;BME280;11387;51.612;7.210;2023-01-29T07:46:30;102033.47;;;-1.42;84.64
22440;BME280;11387;51.612;7.210;2023-01-29T07:48:58;102032.63;;;-1.43;84.81
22440;BME280;11387;51.612;7.210;2023-01-29T07:51:27;102030.78;;;-1.42;84.89
22440;BME280;11387;51.612;7.210;2023-01-29T07:53:55;102037.44;;;-1.38;84.38
22440;BME280;11387;51.612;7.210;2023-01-29T07:56:26;102030.22;;;-1.38;84.66
22440;BME280;11387;51.612;7.210;2023-01-29T07:58:55;102032.72;;;-1.36;84.17
22440;BME280;11387;51.612;7.210;2023-01-29T08:01:23;102035.69;;;-1.31;83.76
22440;BME280;11387;51.612;7.210;2023-01-29T08:03:52;102043.09;;;-1.33;84.11
22440;BME280;11387;51.612;7.210;2023-01-29T08:06:20;102023.75;;;-1.28;83.96
22440;BME280;11387;51.612;7.210;2023-01-29T08:08:49;102027.47;;;-1.29;83.85
22440;BME280;11387;51.612;7.210;2023-01-29T08:11:18;102015.88;;;-1.30;83.68
22440;BME280;11387;51.612;7.210;2023-01-29T08:13:48;102018.75;;;-1.31;84.19
22440;BME280;11387;51.612;7.210;2023-01-29T08:16:16;102017.91;;;-1.32;83.85
22440;BME280;11387;51.612;7.210;2023-01-29T08:18:45;102018.84;;;-1.25;83.62
22440;BME280;11387;51.612;7.210;2023-01-29T08:21:15;102015.88;;;-1.30;83.80
22440;BME280;11387;51.612;7.210;2023-01-29T08:23:43;102025.13;;;-1.18;83.49
22440;BME280;11387;51.612;7.210;2023-01-29T08:26:12;102024.75;;;-1.15;83.43
22440;BME280;11387;51.612;7.210;2023-01-29T08:28:41;102016.41;;;-1.20;83.30
22440;BME280;11387;51.612;7.210;2023-01-29T08:31:14;102011.34;;;-1.29;84.01
22440;BME280;11387;51.612;7.210;2023-01-29T08:33:45;102006.81;;;-1.29;83.93
22440;BME280;11387;51.612;7.210;2023-01-29T08:36:15;101999.13;;;-1.32;84.25
22440;BME280;11387;51.612;7.210;2023-01-29T08:38:43;101998.94;;;-1.30;83.91
22440;BME280;11387;51.612;7.210;2023-01-29T08:41:12;101992.38;;;-1.28;84.10
22440;BME280;11387;51.612;7.210;2023-01-29T08:43:40;101980.78;;;-1.28;84.19
22440;BME280;11387;51.612;7.210;2023-01-29T08:46:09;101984.59;;;-1.23;84.15
22440;BME280;11387;51.612;7.210;2023-01-29T08:48:39;101990.16;;;-1.24;83.91
22440;BME280;11387;51.612;7.210;2023-01-29T08:51:08;101985.84;;;-1.19;83.47
22440;BME280;11387;51.612;7.210;2023-01-29T08:53:36;101986.50;;;-1.17;84.20
22440;BME280;11387;51.612;7.210;2023-01-29T08:56:05;101979.91;;;-0.99;83.48
22440;BME280;11387;51.612;7.210;2023-01-29T08:58:34;101974.03;;;-0.88;83.18
22440;BME280;11387;51.612;7.210;2023-01-29T09:01:06;101992.31;;;-0.98;83.39
22440;BME280;11387;51.612;7.210;2023-01-29T09:03:35;101979.75;;;-0.91;83.19
22440;BME280;11387;51.612;7.210;2023-01-29T09:06:10;101972.25;;;-0.81;83.04
22440;BME280;11387;51.612;7.210;2023-01-29T09:08:39;101964.75;;;-0.86;82.76
22440;BME280;11387;51.612;7.210;2023-01-29T09:11:11;101962.41;;;-0.74;82.36
22440;BME280;11387;51.612;7.210;2023-01-29T09:13:40;101968.91;;;-0.83;81.96
22440;BME280;11387;51.612;7.210;2023-01-29T09:16:09;101962.72;;;-0.84;82.14
22440;BME280;11387;51.612;7.210;2023-01-29T09:18:37;101960.59;;;-0.88;82.53
22440;BME280;11387;51.612;7.210;2023-01-29T09:21:06;101958.25;;;-0.77;82.22
22440;BME280;11387;51.612;7.210;2023-01-29T09:23:36;101951.13;;;-0.84;81.83
22440;BME280;11387;51.612;7.210;2023-01-29T09:26:06;101950.91;;;-0.68;81.66
22440;BME280;11387;51.612;7.210;2023-01-29T09:28:35;101951.00;;;-0.76;81.63
22440;BME280;11387;51.612;7.210;2023-01-29T09:31:04;101963.31;;;-0.67;81.24
22440;BME280;11387;51.612;7.210;2023-01-29T09:33:32;101963.31;;;-0.67;81.07
22440;BME280;11387;51.612;7.210;2023-01-29T09:36:01;101958.69;;;-0.73;81.19
22440;BME280;11387;51.612;7.210;2023-01-29T09:38:30;101951.28;;;-0.71;81.36
22440;BME280;11387;51.612;7.210;2023-01-29T09:41:07;101956.25;;;-0.68;80.54
22440;BME280;11387;51.612;7.210;2023-01-29T09:43:46;101954.88;;;-0.64;80.58
22440;BME280;11387;51.612;7.210;2023-01-29T09:46:20;101952.59;;;-0.60;80.97
22440;BME280;11387;51.612;7.210;2023-01-29T09:48:56;101950.56;;;-0.58;80.87
22440;BME280;11387;51.612;7.210;2023-01-29T09:51:33;101953.97;;;-0.71;80.94
22440;BME280;11387;51.612;7.210;2023-01-29T09:54:13;101951.28;;;-0.71;80.64
22440;BME280;11387;51.612;7.210;2023-01-29T09:56:45;101946.34;;;-0.68;80.88
22440;BME280;11387;51.612;7.210;2023-01-29T09:59:16;101948.84;;;-0.66;80.83
22440;BME280;11387;51.612;7.210;2023-01-29T10:01:56;101951.53;;;-0.66;81.03
22440;BME280;11387;51.612;7.210;2023-01-29T10:07:46;101956.88;;;-0.45;80.71
22440;BME280;11387;51.612;7.210;2023-01-29T10:10:26;101954.59;;;-0.48;80.63
22440;BME280;11387;51.612;7.210;2023-01-29T10:13:09;101956.38;;;-0.33;80.29
22440;BME280;11387;51.612;7.210;2023-01-29T10:15:47;101959.16;;;-0.20;79.67
22440;BME280;11387;51.612;7.210;2023-01-29T10:18:53;101955.84;;;-0.22;79.22
22440;BME280;11387;51.612;7.210;2023-01-29T10:21:45;101959.16;;;-0.20;79.02
22440;BME280;11387;51.612;7.210;2023-01-29T10:24:25;101953.13;;;-0.01;78.71
22440;BME280;11387;51.612;7.210;2023-01-29T10:26:59;101949.41;;;0.00;78.97
22440;BME280;11387;51.612;7.210;2023-01-29T10:29:31;101946.47;;;0.02;78.60
22440;BME280;11387;51.612;7.210;2023-01-29T10:32:03;101940.91;;;0.03;78.73
22440;BME280;11387;51.612;7.210;2023-01-29T10:34:37;101934.78;;;0.16;78.12
22440;BME280;11387;51.612;7.210;2023-01-29T10:37:15;101925.50;;;0.18;77.96
22440;BME280;11387;51.612;7.210;2023-01-29T10:39:46;101925.88;;;0.15;77.46
22440;BME280;11387;51.612;7.210;2023-01-29T10:42:23;101925.09;;;0.21;77.63
22440;BME280;11387;51.612;7.210;2023-01-29T10:45:08;101915.91;;;0.09;77.52
22440;BME280;11387;51.612;7.210;2023-01-29T10:48:08;101914.38;;;0.28;77.04
22440;BME280;11387;51.612;7.210;2023-01-29T10:50:48;101918.53;;;0.30;76.22
22440;BME280;11387;51.612;7.210;2023-01-29T10:53:28;101904.00;;;0.25;76.43
22440;BME280;11387;51.612;7.210;2023-01-29T10:56:10;101903.63;;;0.28;77.05
22440;BME280;11387;51.612;7.210;2023-01-29T10:58:52;101898.97;;;0.15;77.13
22440;BME280;11387;51.612;7.210;2023-01-29T11:01:24;101900.19;;;0.13;77.41
22440;BME280;11387;51.612;7.210;2023-01-29T11:04:00;101887.03;;;0.24;76.78
22440;BME280;11387;51.612;7.210;2023-01-29T11:06:31;101890.50;;;0.18;76.87
22440;BME280;11387;51.612;7.210;2023-01-29T11:09:04;101895.00;;;0.11;76.77
22440;BME280;11387;51.612;7.210;2023-01-29T11:11:41;101879.84;;;0.04;76.89
22440;BME280;11387;51.612;7.210;2023-01-29T11:14:13;101880.09;;;0.09;76.99
22440;BME280;11387;51.612;7.210;2023-01-29T11:16:47;101881.53;;;0.05;77.65
22440;BME280;11387;51.612;7.210;2023-01-29T11:19:18;101875.25;;;0.32;76.50
22440;BME280;11387;51.612;7.210;2023-01-29T11:22:03;101872.78;;;0.30;76.33
22440;BME280;11387;51.612;7.210;2023-01-29T11:24:36;101865.81;;;0.49;75.90
22440;BME280;11387;51.612;7.210;2023-01-29T11:27:13;101862.91;;;0.51;76.13
22440;BME280;11387;51.612;7.210;2023-01-29T11:29:44;101849.91;;;0.67;75.41
22440;BME280;11387;51.612;7.210;2023-01-29T11:32:24;101856.50;;;0.52;75.09
22440;BME280;11387;51.612;7.210;2023-01-29T11:34:58;101850.28;;;0.51;75.31
22440;BME280;11387;51.612;7.210;2023-01-29T11:37:34;101840.75;;;0.49;75.13
22440;BME280;11387;51.612;7.210;2023-01-29T11:40:33;101844.88;;;0.45;75.72
22440;BME280;11387;51.612;7.210;2023-01-29T11:43:29;101830.41;;;0.65;74.76
22440;BME280;11387;51.612;7.210;2023-01-29T11:46:01;101830.47;;;0.79;74.03
22440;BME280;11387;51.612;7.210;2023-01-29T11:48:42;101809.72;;;0.73;74.69
22440;BME280;11387;51.612;7.210;2023-01-29T11:51:20;101815.94;;;0.60;74.74
22440;BME280;11387;51.612;7.210;2023-01-29T11:53:52;101808.44;;;0.62;74.93
22440;BME280;11387;51.612;7.210;2023-01-29T11:56:28;101800.13;;;0.44;75.08
22440;BME280;11387;51.612;7.210;2023-01-29T11:59:00;101804.31;;;0.53;74.74
22440;BME280;11387;51.612;7.210;2023-01-29T12:01:32;101805.56;;;0.57;74.97
22440;BME280;11387;51.612;7.210;2023-01-29T12:04:14;101796.91;;;0.81;74.01
22440;BME280;11387;51.612;7.210;2023-01-29T12:06:50;101793.56;;;0.92;73.82
22440;BME280;11387;51.612;7.210;2023-01-29T12:09:22;101788.19;;;0.86;74.14
22440;BME280;11387;51.612;7.210;2023-01-29T12:11:54;101771.19;;;1.05;73.50
22440;BME280;11387;51.612;7.210;2023-01-29T12:14:27;101770.38;;;0.98;73.23
22440;BME280;11387;51.612;7.210;2023-01-29T12:17:03;101761.69;;;0.83;73.26
22440;BME280;11387;51.612;7.210;2023-01-29T12:19:42;101749.25;;;0.82;73.44
22440;BME280;11387;51.612;7.210;2023-01-29T12:22:16;101745.06;;;0.92;72.91
22440;BME280;11387;51.612;7.210;2023-01-29T12:24:51;101743.84;;;0.88;73.37
22440;BME280;11387;51.612;7.210;2023-01-29T12:27:28;101740.97;;;0.90;73.35
22440;BME280;11387;51.612;7.210;2023-01-29T12:30:02;101723.97;;;0.76;73.92
22440;BME280;11387;51.612;7.210;2023-01-29T12:32:46;101723.13;;;0.82;73.92
22440;BME280;11387;51.612;7.210;2023-01-29T12:35:22;101712.75;;;0.92;73.13
22440;BME280;11387;51.612;7.210;2023-01-29T12:37:56;101713.56;;;1.13;73.60
22440;BME280;11387;51.612;7.210;2023-01-29T12:43:29;101710.25;;;0.97;73.12
22440;BME280;11387;51.612;7.210;2023-01-29T12:46:07;101707.81;;;0.83;73.88
22440;BME280;11387;51.612;7.210;2023-01-29T12:48:44;101699.06;;;1.00;73.29
22440;BME280;11387;51.612;7.210;2023-01-29T12:51:23;101698.66;;;1.10;73.42
22440;BME280;11387;51.612;7.210;2023-01-29T12:53:58;101696.38;;;1.07;73.85
22440;BME280;11387;51.612;7.210;2023-01-29T12:56:36;101691.59;;;1.16;73.68
22440;BME280;11387;51.612;7.210;2023-01-29T12:59:14;101691.41;;;1.11;73.60
22440;BME280;11387;51.612;7.210;2023-01-29T13:01:51;101675.66;;;1.01;73.77
22440;BME280;11387;51.612;7.210;2023-01-29T13:04:29;101681.66;;;1.10;72.95
22440;BME280;11387;51.612;7.210;2023-01-29T13:07:09;101684.97;;;1.18;73.29
22440;BME280;11387;51.612;7.210;2023-01-29T13:09:43;101683.72;;;1.21;72.54
22440;BME280;11387;51.612;7.210;2023-01-29T13:12:22;101682.06;;;1.13;72.77
22440;BME280;11387;51.612;7.210;2023-01-29T13:14:59;101680.81;;;1.09;73.47
22440;BME280;11387;51.612;7.210;2023-01-29T13:17:34;101681.28;;;0.86;73.58
22440;BME280;11387;51.612;7.210;2023-01-29T13:20:12;101668.00;;;0.91;73.66
22440;BME280;11387;51.612;7.210;2023-01-29T13:22:49;101673.41;;;0.91;74.41
22440;BME280;11387;51.612;7.210;2023-01-29T13:25:20;101659.28;;;1.02;73.81
22440;BME280;11387;51.612;7.210;2023-01-29T13:27:49;101670.47;;;1.13;73.50
22440;BME280;11387;51.612;7.210;2023-01-29T13:30:29;101658.66;;;1.00;73.41
22440;BME280;11387;51.612;7.210;2023-01-29T13:33:01;101660.50;;;1.13;73.96
22440;BME280;11387;51.612;7.210;2023-01-29T13:35:57;101661.34;;;1.14;73.11